Time;durP1;ratioP1;P1;durP2;ratioP2;P2;SDS_P1;SDS_P2;PMS_P1;PMS_P2;Temp;Humidity;BMP_temperature;BMP_pressure;BME280_temperature;BME280_humidity;BME280_pressure;Samples;Min_cycle;Max_cycle;Signal;HPM_P1;HPM_P2
2022/08/13 00:00:41;;;;;;;12.20;11.00;;;;;;;20.45;71.64;100825.05;110594;1251;22070;-76
2022/08/13 00:03:14;;;;;;;11.60;10.70;;;;;;;20.43;72.12;100826.01;110739;1251;22431;-76
2022/08/13 00:06:08;;;;;;;12.10;10.90;;;;;;;20.39;72.28;100830.34;110547;1250;24308;-76
2022/08/13 00:08:51;;;;;;;14.60;12.60;;;;;;;20.33;72.57;100829.61;110702;1250;21959;-75
2022/08/13 00:14:35;;;;;;;13.80;12.60;;;;;;;20.20;73.46;100839.45;110741;1251;22037;-75
2022/08/13 00:17:14;;;;;;;13.90;12.60;;;;;;;20.15;74.01;100826.30;110677;1251;21962;-75
2022/08/13 00:19:48;;;;;;;14.20;12.90;;;;;;;20.12;74.43;100825.34;110689;1250;24275;-74
2022/08/13 00:22:24;;;;;;;13.60;12.50;;;;;;;20.08;74.87;100814.89;110895;1250;22976;-75
2022/08/13 00:25:05;;;;;;;13.70;12.60;;;;;;;20.06;75.36;100816.89;110756;1251;21983;-76
2022/08/13 00:27:38;;;;;;;14.90;13.50;;;;;;;20.00;75.52;100821.64;110665;1253;22415;-75
2022/08/13 00:30:30;;;;;;;15.10;13.70;;;;;;;19.92;75.97;100810.55;110967;1253;21980;-75
2022/08/13 00:33:04;;;;;;;14.20;13.10;;;;;;;19.88;76.37;100793.55;110533;1251;24288;-76
2022/08/13 00:35:36;;;;;;;16.30;14.70;;;;;;;19.84;76.88;100778.20;110963;1250;23723;-76
2022/08/13 00:38:13;;;;;;;17.20;15.50;;;;;;;19.82;77.39;100776.52;110956;1250;21969;-77
2022/08/13 00:40:52;;;;;;;17.40;15.90;;;;;;;19.81;77.79;100779.30;110911;1250;21979;-76
2022/08/13 00:43:33;;;;;;;15.70;14.30;;;;;;;19.79;78.01;100790.36;110704;1250;22978;-76
2022/08/13 00:46:03;;;;;;;16.50;14.90;;;;;;;19.73;78.11;100781.08;110789;1250;21960;-76
2022/08/13 00:48:42;;;;;;;15.80;14.30;;;;;;;19.68;78.46;100770.45;110686;1250;23091;-76
2022/08/13 00:51:25;;;;;;;15.00;13.80;;;;;;;19.64;78.78;100765.43;110694;1250;21975;-77
2022/08/13 00:54:17;;;;;;;15.70;14.20;;;;;;;19.60;79.13;100760.80;110751;1251;22740;-77
2022/08/13 00:56:48;;;;;;;15.70;14.30;;;;;;;19.57;79.16;100755.36;110810;1250;23045;-77
2022/08/13 00:59:17;;;;;;;16.10;14.50;;;;;;;19.54;79.34;100752.33;110681;1250;21961;-77
2022/08/13 01:01:51;;;;;;;15.50;14.20;;;;;;;19.52;79.81;100749.67;110793;1251;21963;-77
2022/08/13 01:04:21;;;;;;;15.60;14.40;;;;;;;19.49;79.96;100749.27;110842;1250;21977;-78
2022/08/13 01:06:59;;;;;;;14.60;13.50;;;;;;;19.50;80.27;100754.30;110834;1250;21956;-77
2022/08/13 01:09:40;;;;;;;16.70;15.10;;;;;;;19.49;80.47;100755.38;110681;1251;22023;-79
2022/08/13 01:12:30;;;;;;;15.20;14.00;;;;;;;19.47;80.59;100750.86;110538;1251;23742;-77
2022/08/13 01:15:02;;;;;;;14.30;13.20;;;;;;;19.46;80.59;100746.70;110798;1250;22186;-77
2022/08/13 01:17:38;;;;;;;16.00;14.40;;;;;;;19.46;80.81;100750.66;110766;1250;23589;-76
2022/08/13 01:20:21;;;;;;;15.70;14.50;;;;;;;19.43;80.99;100748.33;110830;1250;23692;-77
2022/08/13 01:23:04;;;;;;;16.00;14.90;;;;;;;19.39;81.18;100739.13;110818;1250;23612;-77
2022/08/13 01:25:37;;;;;;;17.80;16.30;;;;;;;19.38;81.44;100739.27;110829;1250;23600;-77
2022/08/13 01:28:27;;;;;;;19.40;18.00;;;;;;;19.37;81.60;100733.73;110730;1250;23674;-77
2022/08/13 01:31:05;;;;;;;19.90;18.50;;;;;;;19.36;81.84;100729.50;110759;1251;22621;-77
2022/08/13 01:33:49;;;;;;;21.50;19.80;;;;;;;19.34;81.72;100725.23;110815;1250;23664;-77
2022/08/13 01:36:22;;;;;;;22.60;20.60;;;;;;;19.31;81.82;100721.17;110503;1251;23049;-77
2022/08/13 01:39:10;;;;;;;23.50;21.30;;;;;;;19.28;81.92;100715.02;110702;1250;23664;-78
2022/08/13 01:41:48;;;;;;;24.90;22.50;;;;;;;19.26;82.13;100708.80;110696;1250;22180;-77
2022/08/13 01:44:25;;;;;;;26.00;23.80;;;;;;;19.24;82.26;100704.56;110696;1250;24309;-77
2022/08/13 01:50:30;;;;;;;23.60;21.50;;;;;;;19.21;82.52;100701.16;110760;1250;22723;-77
2022/08/13 01:53:14;;;;;;;24.30;22.10;;;;;;;19.18;82.59;100699.04;110015;1258;22931;-76
2022/08/13 01:55:54;;;;;;;23.80;21.90;;;;;;;19.15;82.72;100698.73;109859;1261;21981;-77
2022/08/13 01:58:47;;;;;;;25.70;23.60;;;;;;;19.15;82.98;100695.60;109912;1259;21977;-75
2022/08/13 02:01:36;;;;;;;23.90;21.80;;;;;;;19.16;83.10;100695.02;110221;1257;21957;-76
2022/08/13 02:04:13;;;;;;;23.40;21.60;;;;;;;19.16;83.07;100698.98;110269;1257;22196;-76
2022/08/13 02:06:54;;;;;;;23.90;21.90;;;;;;;19.14;83.02;100698.52;110232;1257;23055;-76
2022/08/13 02:09:23;;;;;;;22.10;20.10;;;;;;;19.13;83.16;100698.50;110122;1258;22187;-76
2022/08/13 02:12:15;;;;;;;22.00;20.10;;;;;;;19.12;83.20;100696.89;110414;1253;22750;-77
2022/08/13 02:15:09;;;;;;;23.50;21.60;;;;;;;19.10;83.17;100691.85;110662;1253;23787;-75
2022/08/13 02:17:42;;;;;;;22.20;20.50;;;;;;;19.08;83.21;100687.81;110757;1250;22069;-77
2022/08/13 02:20:34;;;;;;;22.60;20.60;;;;;;;19.05;83.36;100686.27;110429;1256;22025;-77
2022/08/13 02:23:09;;;;;;;22.80;21.00;;;;;;;19.02;83.38;100686.29;110425;1256;23089;-77
2022/08/13 02:25:38;;;;;;;21.00;19.40;;;;;;;19.01;83.48;100682.45;110213;1258;22059;-77
2022/08/13 02:28:09;;;;;;;24.80;22.60;;;;;;;19.01;83.54;100680.23;110295;1256;23574;-76
2022/08/13 02:30:54;;;;;;;23.30;21.50;;;;;;;18.98;83.51;100674.52;110365;1256;21962;-77
2022/08/13 02:33:25;;;;;;;22.00;20.30;;;;;;;18.97;83.60;100670.25;110305;1256;21964;-77
2022/08/13 02:35:57;;;;;;;22.20;20.30;;;;;;;18.97;83.73;100669.52;110412;1256;23590;-77
2022/08/13 02:38:26;;;;;;;24.20;22.10;;;;;;;18.97;83.80;100664.19;110556;1251;21980;-77
2022/08/13 02:43:47;;;;;;;23.00;21.00;;;;;;;18.94;83.75;100659.06;110638;1252;23005;-77
2022/08/13 02:46:27;;;;;;;24.30;22.30;;;;;;;18.92;83.83;100660.56;110765;1252;23137;-77
2022/08/13 02:49:01;;;;;;;23.60;21.70;;;;;;;18.92;83.92;100659.20;110846;1251;21971;-76
2022/08/13 02:51:32;;;;;;;24.30;22.50;;;;;;;18.90;83.85;100661.45;110800;1250;21959;-77
2022/08/13 02:54:21;;;;;;;24.30;22.40;;;;;;;18.87;83.81;100665.74;110668;1252;21959;-77
2022/08/13 02:56:52;;;;;;;24.30;22.10;;;;;;;18.85;83.82;100664.31;110644;1251;24270;-76
2022/08/13 02:59:23;;;;;;;23.00;21.00;;;;;;;18.84;83.93;100667.33;110750;1250;22395;-77
2022/08/13 03:02:12;;;;;;;21.80;20.00;;;;;;;18.82;84.03;100662.34;110707;1250;22879;-77
2022/08/13 03:04:49;;;;;;;22.50;20.50;;;;;;;18.80;84.05;100662.57;110787;1251;23787;-77
2022/08/13 03:07:18;;;;;;;23.90;22.00;;;;;;;18.79;84.04;100662.89;110781;1250;21955;-77
2022/08/13 03:09:48;;;;;;;22.70;20.70;;;;;;;18.78;84.01;100666.48;110932;1249;21962;-77
2022/08/13 03:12:21;;;;;;;23.60;21.80;;;;;;;18.77;84.11;100663.89;110800;1250;24284;-77
2022/08/13 03:15:00;;;;;;;22.20;20.10;;;;;;;18.75;84.14;100662.71;110830;1250;23025;-77
2022/08/13 03:17:30;;;;;;;24.50;22.60;;;;;;;18.74;84.19;100669.67;110820;1251;23050;-77
2022/08/13 03:19:59;;;;;;;24.00;22.00;;;;;;;18.73;84.21;100671.89;110786;1251;21998;-77
2022/08/13 03:22:28;;;;;;;23.40;21.10;;;;;;;18.72;84.31;100667.94;110715;1253;22007;-77
2022/08/13 03:24:57;;;;;;;22.40;20.40;;;;;;;18.72;84.44;100670.95;110822;1250;21995;-77
2022/08/13 03:27:27;;;;;;;21.90;20.20;;;;;;;18.72;84.51;100670.83;110821;1252;21969;-77
2022/08/13 03:30:00;;;;;;;20.60;18.90;;;;;;;18.72;84.42;100667.94;110741;1250;24265;-76
2022/08/13 03:32:40;;;;;;;21.10;19.30;;;;;;;18.71;84.43;100673.00;110837;1250;21962;-77
2022/08/13 03:35:20;;;;;;;21.80;20.10;;;;;;;18.70;84.57;100674.32;110622;1251;22738;-77
2022/08/13 03:38:12;;;;;;;19.70;17.80;;;;;;;18.68;84.41;100674.23;110542;1250;22239;-76
2022/08/13 03:43:32;;;;;;;22.50;20.40;;;;;;;18.68;84.64;100673.05;110498;1251;21959;-76
2022/08/13 03:46:25;;;;;;;25.20;22.90;;;;;;;18.67;84.66;100667.63;110717;1250;21962;-76
2022/08/13 03:48:55;;;;;;;26.60;24.10;;;;;;;18.66;84.61;100664.90;110622;1250;23570;-76
2022/08/13 03:51:26;;;;;;;26.10;23.40;;;;;;;18.66;84.65;100663.63;110845;1250;22065;-77
2022/08/13 03:54:03;;;;;;;24.90;22.80;;;;;;;18.66;84.77;100661.98;110736;1251;23766;-76
2022/08/13 03:56:32;;;;;;;26.00;23.70;;;;;;;18.67;84.76;100661.33;110817;1250;21960;-77
2022/08/13 03:59:04;;;;;;;26.60;24.20;;;;;;;18.69;84.89;100660.90;110884;1250;21966;-77
2022/08/13 04:01:33;;;;;;;27.90;25.50;;;;;;;18.70;84.89;100666.41;110717;1251;24266;-77
2022/08/13 04:04:12;;;;;;;28.70;26.30;;;;;;;18.68;84.67;100661.67;110820;1251;22970;-77
2022/08/13 04:06:40;;;;;;;29.50;26.80;;;;;;;18.67;84.70;100660.52;110765;1251;23678;-76
2022/08/13 04:09:13;;;;;;;30.60;28.00;;;;;;;18.68;84.84;100661.27;110693;1250;23053;-77
2022/08/13 04:11:46;;;;;;;;;;;;;;;18.69;85.03;100663.24;110857;1250;23120;-77
2022/08/13 04:14:33;;;;;;;29.00;26.30;;;;;;;18.64;85.19;100662.16;110701;1249;21947;-77
2022/08/13 04:17:10;;;;;;;29.20;26.70;;;;;;;18.64;85.06;100661.79;110877;1250;21965;-77
2022/08/13 04:19:44;;;;;;;27.70;25.30;;;;;;;18.64;85.04;100661.42;110729;1250;21959;-77
2022/08/13 04:22:17;;;;;;;28.70;25.90;;;;;;;18.66;85.21;100657.73;110797;1250;23755;-77
2022/08/13 04:24:46;;;;;;;31.40;28.70;;;;;;;18.68;85.23;100652.67;110864;1250;21956;-77
2022/08/13 04:27:14;;;;;;;31.60;28.90;;;;;;;18.69;85.25;100649.83;110750;1250;23023;-76
2022/08/13 04:29:45;;;;;;;31.60;29.00;;;;;;;18.70;85.18;100650.48;110843;1250;21956;-77
2022/08/13 04:32:21;;;;;;;32.90;30.00;;;;;;;18.69;85.24;100648.60;110725;1250;21963;-76
2022/08/13 04:34:54;;;;;;;33.00;30.10;;;;;;;18.71;85.43;100653.25;110936;1250;21971;-78
2022/08/13 04:37:30;;;;;;;34.60;31.60;;;;;;;18.74;85.56;100656.57;110751;1253;21961;-77
2022/08/13 04:40:13;;;;;;;30.00;27.40;;;;;;;18.76;85.44;100654.92;110684;1251;23697;-78
2022/08/13 04:42:59;;;;;;;28.90;26.20;;;;;;;18.77;85.51;100651.76;110802;1251;24084;-77
2022/08/13 04:45:34;;;;;;;28.00;25.50;;;;;;;18.80;85.61;100660.59;110694;1253;22185;-77
2022/08/13 04:48:13;;;;;;;27.30;24.80;;;;;;;18.82;85.64;100665.30;110808;1250;23705;-77
2022/08/13 04:50:48;;;;;;;25.80;23.40;;;;;;;18.86;85.71;100663.44;110851;1250;23580;-77
2022/08/13 04:53:40;;;;;;;24.60;22.60;;;;;;;18.89;85.66;100657.64;110830;1252;23667;-76
2022/08/13 04:56:18;;;;;;;25.40;23.40;;;;;;;18.91;85.70;100659.45;110783;1250;22121;-77
2022/08/13 04:58:47;;;;;;;23.40;21.50;;;;;;;18.92;85.63;100663.77;110707;1250;23047;-76
2022/08/13 05:01:16;;;;;;;24.60;22.40;;;;;;;18.93;85.54;100663.52;110779;1251;21974;-77
2022/08/13 05:04:06;;;;;;;23.20;21.30;;;;;;;18.93;85.59;100661.66;110759;1250;22370;-77
2022/08/13 05:06:52;;;;;;;24.30;22.20;;;;;;;18.95;85.67;100659.67;110749;1250;23054;-77
2022/08/13 05:09:23;;;;;;;24.90;22.30;;;;;;;18.94;85.53;100664.00;110411;1256;23092;-78
2022/08/13 05:11:59;;;;;;;24.90;22.30;;;;;;;18.95;85.65;100667.45;110340;1256;23816;-78
2022/08/13 05:14:35;;;;;;;24.10;22.10;;;;;;;18.98;85.73;100670.29;109784;1261;21981;-78
2022/08/13 05:17:07;;;;;;;24.30;22.30;;;;;;;19.01;85.82;100670.17;109630;1261;21980;-77
2022/08/13 05:19:45;;;;;;;25.20;23.10;;;;;;;19.05;85.81;100670.79;109559;1263;22301;-77
2022/08/13 05:22:21;;;;;;;24.10;22.10;;;;;;;19.06;85.69;100668.80;109189;1261;23075;-77
2022/08/13 05:25:10;;;;;;;;;;;;;;;19.05;85.60;100674.48;109683;1261;21952;-77
2022/08/13 05:27:58;;;;;;;24.10;22.20;;;;;;;18.97;85.60;100675.55;109623;1261;22096;-76
2022/08/13 05:30:30;;;;;;;23.80;21.70;;;;;;;18.97;85.65;100670.00;109115;1267;23069;-76
2022/08/13 05:33:02;;;;;;;23.80;21.50;;;;;;;19.01;85.74;100667.19;109063;1263;22463;-76
2022/08/13 05:35:47;;;;;;;26.40;24.10;;;;;;;19.05;85.84;100662.98;110331;1256;21965;-77
2022/08/13 05:38:37;;;;;;;26.70;24.30;;;;;;;19.09;85.76;100663.88;110203;1256;22105;-77
2022/08/13 05:41:12;;;;;;;26.90;24.60;;;;;;;19.12;85.73;100669.04;110197;1256;22858;-78
2022/08/13 05:43:45;;;;;;;26.00;23.60;;;;;;;19.13;85.73;100668.02;109735;1261;22346;-79
2022/08/13 05:46:23;;;;;;;25.70;23.50;;;;;;;19.15;85.71;100666.52;108912;1270;23055;-78
2022/08/13 05:48:58;;;;;;;27.80;25.00;;;;;;;19.20;86.01;100664.16;109143;1264;21978;-77
2022/08/13 05:51:31;;;;;;;27.90;25.50;;;;;;;19.23;85.74;100662.62;109275;1264;22768;-77
2022/08/13 05:54:22;;;;;;;25.50;23.10;;;;;;;19.22;85.59;100662.91;109281;1264;21975;-82
2022/08/13 05:57:11;;;;;;;24.20;22.00;;;;;;;19.23;85.67;100662.78;109344;1263;21973;-78
2022/08/13 06:05:17;;;;;;;25.10;22.90;;;;;;;19.36;85.68;100658.60;110020;1258;21976;-77
2022/08/13 06:08:06;;;;;;;24.80;22.70;;;;;;;19.38;85.63;100655.83;110219;1257;23667;-78
2022/08/13 06:10:58;;;;;;;26.50;24.20;;;;;;;19.40;85.56;100655.20;110038;1257;23034;-77
2022/08/13 06:13:28;;;;;;;23.10;21.20;;;;;;;19.43;85.49;100650.03;110039;1257;23108;-77
2022/08/13 06:16:18;;;;;;;26.20;23.60;;;;;;;19.47;85.55;100650.61;110005;1257;23599;-79
2022/08/13 06:19:08;;;;;;;20.60;18.50;;;;;;;19.52;85.59;100652.23;110607;1253;23605;-77
2022/08/13 06:21:38;;;;;;;19.70;17.90;;;;;;;19.55;85.42;100651.13;110610;1253;21967;-77
2022/08/13 06:24:32;;;;;;;25.00;22.90;;;;;;;19.56;85.21;100654.24;110578;1254;22255;-78
2022/08/13 06:27:05;;;;;;;23.00;21.00;;;;;;;19.58;85.31;100655.29;110515;1253;23028;-77
2022/08/13 06:29:45;;;;;;;18.00;16.40;;;;;;;19.64;85.46;100659.84;110661;1253;21947;-77
2022/08/13 06:32:21;;;;;;;22.10;20.20;;;;;;;19.68;85.37;100658.09;110769;1253;22995;-77
2022/08/13 06:35:06;;;;;;;21.90;19.90;;;;;;;19.73;85.53;100648.34;110655;1253;21954;-75
2022/08/13 06:37:43;;;;;;;19.90;17.80;;;;;;;19.82;85.61;100646.23;110571;1254;24285;-76
2022/08/13 06:40:23;;;;;;;18.50;17.00;;;;;;;19.90;85.58;100645.42;110578;1254;21965;-75
2022/08/13 06:43:05;;;;;;;17.50;16.10;;;;;;;19.99;85.47;100650.03;110632;1253;23558;-75
2022/08/13 06:45:36;;;;;;;18.40;17.00;;;;;;;20.08;85.46;100648.98;110673;1253;21960;-76
2022/08/13 06:48:09;;;;;;;21.00;19.20;;;;;;;20.16;85.10;100653.88;110631;1253;22730;-74
2022/08/13 06:50:45;;;;;;;17.80;16.20;;;;;;;20.19;84.62;100655.04;110678;1253;21962;-76
2022/08/13 06:53:14;;;;;;;18.40;16.90;;;;;;;20.21;84.41;100653.95;110688;1253;22254;-75
2022/08/13 06:56:07;;;;;;;18.70;17.10;;;;;;;20.22;84.23;100654.85;110500;1253;21959;-76
2022/08/13 06:58:58;;;;;;;18.70;16.70;;;;;;;20.30;84.56;100657.27;110511;1252;23626;-73
2022/08/13 07:01:28;;;;;;;16.50;15.00;;;;;;;20.43;84.93;100657.48;110689;1253;21962;-73
2022/08/13 07:04:19;;;;;;;17.50;16.00;;;;;;;20.56;84.65;100658.04;110485;1253;22204;-73
2022/08/13 07:06:58;;;;;;;16.50;15.30;;;;;;;20.65;84.17;100649.77;110763;1251;21985;-74
2022/08/13 07:09:28;;;;;;;15.70;14.20;;;;;;;20.73;83.83;100652.65;110707;1251;21986;-77
2022/08/13 07:12:14;;;;;;;17.20;15.70;;;;;;;20.84;83.76;100647.25;110572;1252;22312;-77
2022/08/13 07:14:45;;;;;;;17.20;15.50;;;;;;;20.98;83.82;100650.74;110718;1251;21970;-77
2022/08/13 07:17:30;;;;;;;16.60;14.90;;;;;;;21.19;83.97;100653.36;110512;1253;21960;-79
2022/08/13 07:20:04;;;;;;;15.60;14.30;;;;;;;21.46;84.01;100656.52;110942;1253;22021;-78
2022/08/13 07:22:35;;;;;;;15.90;14.60;;;;;;;21.63;82.89;100659.63;110678;1251;23560;-79
2022/08/13 07:25:30;;;;;;;13.50;12.50;;;;;;;21.73;81.72;100658.71;110744;1253;23244;-81
2022/08/13 07:28:20;;;;;;;14.10;12.80;;;;;;;21.77;80.83;100659.40;110579;1252;23045;-83
2022/08/13 07:31:10;;;;;;;14.00;12.70;;;;;;;21.77;80.29;100665.77;110991;1252;21959;-83
2022/08/13 07:33:44;;;;;;;13.10;11.80;;;;;;;21.79;80.23;100669.20;110888;1251;23818;-82
2022/08/13 07:36:32;;;;;;;12.60;11.50;;;;;;;21.83;79.94;100669.81;110798;1253;22013;-81
2022/08/13 07:39:12;;;;;;;12.50;11.20;;;;;;;21.85;79.77;100667.23;111283;1250;21967;-84
2022/08/13 07:41:46;;;;;;;12.80;11.60;;;;;;;21.94;79.93;100670.48;111421;1250;21958;-83
2022/08/13 07:44:32;;;;;;;14.20;12.80;;;;;;;21.94;79.59;100674.10;111196;1250;21958;-82
2022/08/13 07:47:15;;;;;;;12.60;11.70;;;;;;;21.91;79.25;100670.42;111241;1252;21951;-86
2022/08/13 07:49:54;;;;;;;12.90;11.90;;;;;;;21.97;79.30;100675.45;111329;1253;21966;-86
2022/08/13 07:52:29;;;;;;;14.30;12.30;;;;;;;22.06;79.55;100674.70;110854;1256;21963;-86
2022/08/13 07:55:01;;;;;;;13.30;12.00;;;;;;;22.15;79.26;100673.66;109693;1264;23175;-79
2022/08/13 07:57:31;;;;;;;;;;;;;;;22.17;78.70;100678.00;109570;1263;22383;-83
2022/08/13 08:00:21;;;;;;;12.30;11.00;;;;;;;22.08;78.28;100674.02;109972;1263;22038;-86
2022/08/13 08:03:01;;;;;;;12.90;11.70;;;;;;;22.05;78.65;100669.66;109751;1264;22040;-85
2022/08/13 08:05:35;;;;;;;12.10;11.10;;;;;;;22.07;78.58;100670.29;109654;1267;21986;-86
2022/08/13 08:08:13;;;;;;;12.70;11.50;;;;;;;22.09;78.52;100670.88;109557;1268;22079;-86
2022/08/13 08:10:56;;;;;;;13.40;12.40;;;;;;;22.16;78.35;100672.29;109622;1264;22033;-87
2022/08/13 08:13:26;;;;;;;14.80;13.30;;;;;;;22.19;78.22;100672.40;110231;1258;21991;-85
2022/08/13 08:15:57;;;;;;;12.40;11.40;;;;;;;22.22;77.89;100673.52;109987;1260;21955;-85
2022/08/13 08:18:33;;;;;;;14.50;13.10;;;;;;;22.18;77.69;100675.92;109966;1261;23078;-85
2022/08/13 08:21:23;;;;;;;13.70;12.60;;;;;;;22.11;77.52;100678.88;110026;1261;22043;-82
2022/08/13 08:24:15;;;;;;;13.00;11.90;;;;;;;22.05;77.45;100678.73;110652;1256;22322;-86
2022/08/13 08:27:11;;;;;;;13.00;12.00;;;;;;;22.04;77.81;100678.02;110682;1258;23769;-86
2022/08/13 08:30:00;;;;;;;;;;;;;;;22.05;77.97;100681.27;110628;1256;21959;-85
2022/08/13 08:32:42;;;;;;;15.20;13.90;;;;;;;21.98;77.62;100686.98;109901;1263;22103;-85
2022/08/13 08:35:17;;;;;;;24.90;23.00;;;;;;;21.97;77.65;100686.17;110200;1258;22019;-84
2022/08/13 08:43:47;;;;;;;13.10;12.00;;;;;;;22.03;78.30;100685.37;110557;1258;21968;-84
2022/08/13 08:46:17;;;;;;;16.20;14.70;;;;;;;22.11;78.19;100681.23;110320;1256;21966;-85
2022/08/13 08:48:47;;;;;;;13.20;11.90;;;;;;;22.23;78.25;100680.12;110137;1256;22274;-86
2022/08/13 08:51:26;;;;;;;14.90;13.60;;;;;;;22.34;78.35;100681.00;110922;1253;23518;-85
2022/08/13 08:54:00;;;;;;;13.40;12.10;;;;;;;22.42;78.10;100678.80;111235;1250;21963;-82
2022/08/13 08:56:54;;;;;;;15.70;14.30;;;;;;;22.46;77.36;100679.09;110910;1250;22026;-81
2022/08/13 08:59:35;;;;;;;13.40;12.20;;;;;;;22.48;76.97;100680.11;110921;1250;22062;-81
2022/08/13 09:02:24;;;;;;;14.40;13.20;;;;;;;22.52;76.86;100681.16;111187;1250;21956;-81
2022/08/13 09:04:56;;;;;;;14.20;13.00;;;;;;;22.57;77.20;100684.20;110478;1257;21973;-80
2022/08/13 09:07:30;;;;;;;14.10;12.90;;;;;;;22.63;76.58;100685.52;110403;1259;22280;-80
2022/08/13 09:09:59;;;;;;;13.70;12.50;;;;;;;22.66;76.29;100687.04;110388;1256;21961;-79
2022/08/13 09:12:28;;;;;;;14.60;13.40;;;;;;;22.68;75.89;100692.95;110034;1258;22158;-80
2022/08/13 09:14:58;;;;;;;13.50;12.30;;;;;;;22.70;75.90;100692.50;110813;1257;21978;-79
2022/08/13 09:17:30;;;;;;;16.90;15.50;;;;;;;22.79;75.96;100695.19;110637;1257;21971;-80
2022/08/13 09:20:14;;;;;;;13.00;11.70;;;;;;;22.82;75.80;100703.94;110513;1256;21965;-81
2022/08/13 09:22:48;;;;;;;13.00;11.80;;;;;;;22.82;75.31;100701.73;109951;1256;24269;-75
2022/08/13 09:25:26;;;;;;;11.00;10.00;;;;;;;22.80;75.18;100698.18;110371;1256;22658;-77
2022/08/13 09:27:57;;;;;;;10.90;9.80;;;;;;;22.75;74.99;100695.39;110625;1256;22700;-79
2022/08/13 09:30:45;;;;;;;11.60;10.50;;;;;;;22.70;74.91;100694.17;110406;1256;21950;-74
2022/08/13 09:33:20;;;;;;;10.40;9.50;;;;;;;22.67;74.92;100695.73;110301;1258;21977;-75
2022/08/13 09:36:10;;;;;;;10.50;9.60;;;;;;;22.62;74.93;100692.05;110187;1256;23126;-74
2022/08/13 09:38:48;;;;;;;9.90;8.90;;;;;;;22.57;75.21;100693.31;110380;1257;24294;-74
2022/08/13 09:41:32;;;;;;;10.60;9.70;;;;;;;22.59;75.69;100691.91;110499;1250;23561;-75
2022/08/13 09:44:05;;;;;;;11.60;9.40;;;;;;;22.77;76.18;100691.61;110848;1250;21956;-76
2022/08/13 09:46:47;;;;;;;51.10;15.00;;;;;;;22.90;75.47;100690.23;111104;1250;21969;-82
2022/08/13 09:49:24;;;;;;;8.80;7.80;;;;;;;23.03;75.36;100682.94;111295;1250;24070;-83
2022/08/13 09:52:20;;;;;;;9.80;7.00;;;;;;;23.17;74.99;100681.17;110899;1253;21967;-84
2022/08/13 09:55:06;;;;;;;7.90;7.10;;;;;;;23.33;74.36;100674.91;109707;1250;2001745;-84
2022/08/13 09:57:48;;;;;;;7.80;6.90;;;;;;;23.43;73.46;100671.25;111356;1250;23549;-82
2022/08/13 10:00:34;;;;;;;6.80;6.20;;;;;;;23.47;72.71;100668.61;111254;1250;21736;-81
2022/08/13 10:03:12;;;;;;;;;;;;;;;23.51;72.22;100670.45;111067;1253;23030;-81
2022/08/13 10:05:55;;;;;;;8.60;6.70;;;;;;;23.48;71.61;100671.48;110490;1256;23681;-81
2022/08/13 10:08:27;;;;;;;7.80;7.10;;;;;;;23.48;71.67;100672.46;110704;1256;23575;-79
2022/08/13 10:11:06;;;;;;;6.90;6.30;;;;;;;23.48;71.53;100671.71;110399;1256;21971;-81
2022/08/13 10:13:42;;;;;;;8.30;6.70;;;;;;;23.55;71.70;100667.55;110117;1256;21967;-80
2022/08/13 10:16:24;;;;;;;8.20;6.80;;;;;;;23.64;71.38;100667.27;109887;1264;24526;-79
2022/08/13 10:19:02;;;;;;;7.60;6.60;;;;;;;23.75;71.35;100656.55;109781;1261;21996;-82
2022/08/13 10:21:35;;;;;;;7.20;6.10;;;;;;;23.84;70.70;100648.23;109818;1261;21989;-82
2022/08/13 10:24:09;;;;;;;6.80;5.90;;;;;;;23.92;70.44;100642.39;110053;1258;21966;-80
2022/08/13 10:26:45;;;;;;;9.40;7.20;;;;;;;24.07;70.44;100635.40;110640;1256;23575;-81
2022/08/13 10:29:19;;;;;;;8.70;7.00;;;;;;;24.25;70.38;100622.36;110080;1261;21938;-81
2022/08/13 10:32:10;;;;;;;6.90;6.10;;;;;;;24.47;69.84;100614.52;110063;1261;21967;-81
2022/08/13 10:34:48;;;;;;;9.10;6.00;;;;;;;24.65;68.78;100607.64;110132;1256;21995;-81
2022/08/13 10:38:18;;;;;;;6.50;5.70;;;;;;;24.68;67.00;100598.81;109909;1264;21969;-81
2022/08/13 10:41:45;;;;;;;9.30;5.80;;;;;;;24.60;66.36;100592.37;109488;1267;21991;-80
2022/08/13 10:52:46;;;;;;;12.50;6.30;;;;;;;24.57;66.21;100591.58;108573;1279;22467;-81
2022/08/13 10:56:00;;;;;;;;;;;;;;;;;;;;;
2022/08/13 10:58:42;;;;;;;6.80;6.10;;;;;;;24.69;66.76;100587.16;109810;1264;23591;-81
2022/08/13 11:01:59;;;;;;;8.40;6.60;;;;;;;24.68;66.51;100583.80;109474;1265;22979;-81
2022/08/13 11:08:47;;;;;;;10.10;9.20;;;;;;;24.53;66.61;100580.84;104133;1254;22112;-89
2022/08/13 11:12:20;;;;;;;7.50;6.00;;;;;;;24.49;66.61;100575.08;108788;1263;21987;-80
2022/08/13 11:15:01;;;;;;;;;;;;;;;24.55;66.78;100574.77;109269;1263;23049;-81
2022/08/13 11:18:12;;;;;;;7.10;6.10;;;;;;;24.55;66.57;100579.14;110220;1260;22010;-81
2022/08/13 11:21:25;;;;;;;10.70;6.30;;;;;;;24.54;66.16;100579.08;109979;1260;21976;-79
2022/08/13 11:24:59;;;;;;;7.30;5.90;;;;;;;24.50;65.70;100582.16;110311;1260;22042;-81
2022/08/13 11:28:18;;;;;;;8.60;5.90;;;;;;;24.51;65.62;100577.53;110302;1260;23149;-84
2022/08/13 11:31:19;;;;;;;6.80;6.00;;;;;;;24.52;65.57;100576.29;110030;1260;23656;-81
2022/08/13 11:34:10;;;;;;;9.80;6.60;;;;;;;24.47;65.26;100576.19;110116;1260;21953;-81
2022/08/13 11:36:55;;;;;;;10.90;7.20;;;;;;;24.44;65.34;100579.50;109670;1260;22545;-83
2022/08/13 11:39:29;;;;;;;13.80;6.80;;;;;;;24.42;65.44;100580.23;110013;1260;22632;-82
2022/08/13 11:42:19;;;;;;;7.80;7.00;;;;;;;24.45;65.51;100573.56;110198;1260;21978;-81
2022/08/13 11:44:59;;;;;;;7.70;6.50;;;;;;;24.48;65.31;100571.93;110270;1260;24622;-82
2022/08/13 11:47:53;;;;;;;6.70;6.10;;;;;;;24.47;64.90;100566.20;109907;1259;22002;-82
2022/08/13 11:50:43;;;;;;;12.60;7.00;;;;;;;24.45;64.83;100564.18;109910;1260;21972;-83
2022/08/13 11:53:44;;;;;;;8.60;6.70;;;;;;;24.44;64.80;100561.69;109850;1260;22752;-81
2022/08/13 11:56:41;;;;;;;9.00;8.00;;;;;;;24.43;64.90;100552.66;109948;1260;22873;-81
2022/08/13 11:59:22;;;;;;;8.60;6.30;;;;;;;24.50;65.22;100544.24;109844;1260;21972;-81
2022/08/13 12:02:06;;;;;;;10.30;7.30;;;;;;;24.52;65.09;100543.83;109888;1260;21976;-82
2022/08/13 12:04:44;;;;;;;9.90;6.80;;;;;;;24.58;65.05;100549.72;110096;1260;21978;-82
2022/08/13 12:07:25;;;;;;;10.20;7.70;;;;;;;24.59;64.74;100553.08;110100;1260;22383;-81
2022/08/13 12:09:58;;;;;;;7.20;6.40;;;;;;;24.61;64.95;100552.45;110029;1260;23621;-80
2022/08/13 12:12:31;;;;;;;10.10;7.30;;;;;;;24.63;64.90;100559.61;109164;1263;23050;-80
2022/08/13 12:15:16;;;;;;;10.80;7.60;;;;;;;24.68;64.98;100559.00;109247;1267;22288;-83
2022/08/13 12:22:05;;;;;;;7.60;6.80;;;;;;;24.83;65.03;100560.97;109013;1273;22011;-80
2022/08/13 12:24:59;;;;;;;;;;;;;;;;;;;;;
2022/08/13 12:28:42;;;;;;;9.00;6.80;;;;;;;25.04;64.72;100558.49;109028;1272;22205;-84
2022/08/13 12:31:53;;;;;;;7.60;6.90;;;;;;;25.22;64.53;100561.30;109211;1269;23013;-84
2022/08/13 12:34:37;;;;;;;9.30;6.70;;;;;;;25.34;63.88;100560.52;109392;1270;22900;-85
2022/08/13 12:37:26;;;;;;;8.70;8.00;;;;;;;25.45;63.63;100560.04;109149;1269;21994;-80
2022/08/13 12:40:20;;;;;;;10.40;9.50;;;;;;;25.49;63.51;100564.73;108840;1270;22188;-80
2022/08/13 12:42:56;;;;;;;9.50;7.30;;;;;;;25.53;63.44;100558.86;108667;1275;23713;-79
2022/08/13 12:45:26;;;;;;;8.80;7.90;;;;;;;25.62;63.28;100561.05;108545;1275;21996;-81
2022/08/13 12:48:21;;;;;;;8.10;5.60;;;;;;;25.64;62.60;100566.42;108414;1275;22077;-82
2022/08/13 12:51:04;;;;;;;7.40;6.60;;;;;;;25.61;62.46;100566.73;108438;1279;21998;-81